Time;durP1;ratioP1;P1;durP2;ratioP2;P2;SDS_P1;SDS_P2;PMS_P1;PMS_P2;Temp;Humidity;BMP_temperature;BMP_pressure;BME280_temperature;BME280_humidity;BME280_pressure;Samples;Min_cycle;Max_cycle;Signal;HPM_P1;HPM_P2
2022/08/14 00:02:22;;;;;;;3.63;2.88;;;18.10;61.70;;;17.23;66.88;95744.63;4950073;28;20035;-66
2022/08/14 00:04:48;;;;;;;4.18;3.10;;;18.00;61.90;;;17.20;67.14;95741.63;4949850;28;20115;-67
2022/08/14 00:07:14;;;;;;;4.70;3.13;;;18.00;62.10;;;17.17;67.45;95734.94;4966800;28;20094;-69
2022/08/14 00:09:40;;;;;;;6.25;3.03;;;18.00;62.60;;;17.12;67.91;95733.00;4952390;28;20036;-65
2022/08/14 00:12:06;;;;;;;4.13;3.22;;;18.00;63.00;;;17.11;68.79;95728.72;4935086;29;20035;-65
2022/08/14 00:14:32;;;;;;;6.53;3.60;;;17.90;63.40;;;17.06;69.12;95725.19;4949386;28;20034;-66
2022/08/14 00:16:57;;;;;;;5.78;3.22;;;17.90;63.70;;;17.03;69.07;95725.66;4965103;28;20035;-65
2022/08/14 00:19:23;;;;;;;5.53;3.25;;;17.90;64.00;;;17.00;69.95;95720.84;4947454;28;20130;-66
2022/08/14 00:21:50;;;;;;;3.97;3.10;;;17.90;64.10;;;17.00;70.27;95721.63;4949582;28;20062;-66
2022/08/14 00:24:15;;;;;;;4.03;2.95;;;17.80;64.20;;;16.98;70.18;95717.63;4938173;28;20030;-65
2022/08/14 00:26:41;;;;;;;4.13;3.55;;;17.80;64.30;;;16.96;70.11;95722.31;4932718;28;20035;-66
2022/08/14 00:29:07;;;;;;;6.30;3.55;;;17.80;64.30;;;16.93;70.61;95726.28;4949225;28;20035;-65
2022/08/14 00:31:32;;;;;;;3.70;3.08;;;17.70;64.50;;;16.91;70.56;95716.94;4969436;28;20032;-65
2022/08/14 00:33:58;;;;;;;5.03;3.35;;;17.80;64.60;;;16.87;70.89;95719.25;4924995;29;20459;-65
2022/08/14 00:36:24;;;;;;;7.90;3.45;;;17.70;64.40;;;16.84;70.62;95712.56;4948425;28;20448;-65
2022/08/14 00:38:50;;;;;;;9.48;3.30;;;17.70;64.40;;;16.82;70.94;95713.84;4949011;28;20737;-65
2022/08/14 00:41:15;;;;;;;4.18;3.10;;;17.70;64.60;;;16.81;71.22;95706.94;4955386;28;20047;-65
2022/08/14 00:43:41;;;;;;;4.63;3.03;;;17.60;64.80;;;16.79;71.24;95709.84;4948965;28;20487;-65
2022/08/14 00:46:09;;;;;;;4.93;3.15;;;17.60;64.70;;;16.79;71.29;95709.03;4948088;28;20566;-65
2022/08/14 00:48:35;;;;;;;4.60;3.30;;;17.60;64.70;;;16.74;71.36;95706.25;4932546;28;20280;-66
2022/08/14 00:51:03;;;;;;;4.30;3.13;;;17.60;65.00;;;16.71;71.75;95704.06;4949293;28;20087;-65
2022/08/14 00:53:30;;;;;;;6.93;3.60;;;17.60;65.40;;;16.69;72.30;95708.81;4963271;28;20050;-65
2022/08/14 00:55:56;;;;;;;4.28;2.88;;;17.50;65.70;;;16.64;72.54;95706.84;4949088;28;20398;-65
2022/08/14 00:58:31;;;;;;;3.92;3.38;;;17.50;65.80;;;16.61;72.79;95701.19;4947236;28;20074;-66
2022/08/14 01:01:08;;;;;;;5.95;3.58;;;17.40;66.10;;;16.57;73.17;95705.38;4968215;28;20055;-66
2022/08/14 01:03:36;;;;;;;5.20;3.17;;;17.40;66.50;;;16.53;73.73;95695.22;4944530;28;20160;-64
2022/08/14 01:06:02;;;;;;;3.78;3.00;;;17.40;66.60;;;16.51;73.57;95691.16;4948735;28;20534;-65
2022/08/14 01:08:29;;;;;;;4.40;3.20;;;17.40;66.70;;;16.47;73.53;95693.50;4958183;28;20047;-64
2022/08/14 01:10:55;;;;;;;7.45;3.22;;;17.40;66.70;;;16.45;74.26;95692.94;4948760;28;20031;-66
2022/08/14 01:13:38;;;;;;;6.47;2.95;;;17.40;66.90;;;16.45;75.75;95687.63;4947820;28;20078;-64
2022/08/14 01:16:07;;;;;;;7.88;4.00;;;17.40;66.90;;;16.42;74.60;95692.59;4932218;28;20535;-65
2022/08/14 01:21:35;;;;;;;5.85;4.10;;;17.30;66.90;;;16.38;75.98;95692.25;4961412;28;20062;-64
2022/08/14 01:24:01;;;;;;;5.82;4.15;;;17.30;67.00;;;16.36;74.14;95686.38;4959634;28;20055;-64
2022/08/14 01:26:27;;;;;;;3.92;3.50;;;17.30;67.00;;;16.33;74.79;95694.81;4917181;29;20039;-65
2022/08/14 01:28:58;;;;;;;7.55;4.07;;;17.20;67.00;;;16.30;75.49;95681.22;4968431;28;20047;-64
2022/08/14 01:31:29;;;;;;;4.65;3.50;;;17.20;67.00;;;16.27;76.12;95674.50;4947432;28;20526;-64
2022/08/14 01:33:58;;;;;;;4.43;3.90;;;17.20;67.20;;;16.26;74.89;95674.75;4959546;28;20110;-64
2022/08/14 01:36:25;;;;;;;4.93;3.88;;;17.10;67.30;;;16.22;75.31;95671.75;4948408;28;20424;-64
2022/08/14 01:38:54;;;;;;;7.80;3.90;;;17.10;67.40;;;16.20;74.88;95660.56;4936212;29;20492;-64
2022/08/14 01:41:20;;;;;;;5.53;4.20;;;17.10;67.40;;;16.16;74.81;95668.19;4967838;28;20031;-65
2022/08/14 01:44:03;;;;;;;8.15;4.15;;;17.10;67.20;;;16.11;76.05;95664.63;4950871;28;20495;-64
2022/08/14 01:46:33;;;;;;;6.40;4.15;;;17.00;67.10;;;16.05;74.63;95660.25;4949794;28;20050;-64
2022/08/14 01:49:00;;;;;;;5.13;3.95;;;16.90;67.00;;;16.00;75.36;95652.19;4967337;28;20044;-64
2022/08/14 01:51:27;;;;;;;9.63;4.18;;;16.90;67.10;;;15.99;75.55;95653.22;4951243;28;20040;-64
2022/08/14 01:54:05;;;;;;;4.75;3.75;;;16.90;67.20;;;15.99;76.35;95650.56;4951878;28;20028;-64
2022/08/14 01:56:39;;;;;;;4.70;3.63;;;16.90;67.10;;;15.99;75.66;95642.63;4949829;28;20027;-64
2022/08/14 01:59:20;;;;;;;5.18;4.30;;;16.90;67.00;;;15.96;75.82;95641.25;4948542;28;20035;-65
2022/08/14 02:01:47;;;;;;;7.32;4.18;;;16.90;66.90;;;15.91;75.21;95628.69;4951917;28;20035;-64
2022/08/14 02:04:14;;;;;;;5.22;4.03;;;16.80;66.70;;;15.90;74.81;95631.56;4951318;28;20031;-65
2022/08/14 02:06:40;;;;;;;5.18;3.63;;;16.80;66.70;;;15.88;75.37;95623.06;4921436;29;20073;-65
2022/08/14 02:09:08;;;;;;;3.92;3.53;;;16.80;66.80;;;15.87;74.82;95624.91;4951988;28;20118;-65
2022/08/14 02:11:35;;;;;;;5.40;3.63;;;16.80;66.90;;;15.84;75.45;95625.38;4954541;28;20050;-65
2022/08/14 02:14:03;;;;;;;5.40;4.20;;;16.80;67.00;;;15.82;74.93;95624.75;4955536;28;20032;-66
2022/08/14 02:16:32;;;;;;;4.68;3.80;;;16.70;67.20;;;15.77;75.38;95608.75;4933792;29;20042;-65
2022/08/14 02:19:00;;;;;;;6.10;3.67;;;16.70;67.20;;;15.70;74.99;95616.03;4935963;29;20050;-64
2022/08/14 02:21:29;;;;;;;5.88;3.97;;;16.60;67.40;;;15.70;75.98;95618.69;4950477;28;20133;-64
2022/08/14 02:23:55;;;;;;;5.10;4.07;;;16.60;67.50;;;15.69;75.22;95625.03;4946830;28;20460;-64
2022/08/14 02:26:29;;;;;;;5.47;4.10;;;16.60;67.30;;;15.65;76.60;95618.59;4950554;28;20134;-65
2022/08/14 02:29:02;;;;;;;4.95;4.10;;;16.60;67.30;;;15.60;76.82;95621.09;4941602;28;20486;-64
2022/08/14 02:31:31;;;;;;;5.15;3.95;;;16.50;67.60;;;15.56;75.70;95618.06;4957992;28;20042;-64
2022/08/14 02:34:06;;;;;;;8.73;4.32;;;16.40;67.70;;;15.54;77.12;95608.75;4903420;29;20062;-65
2022/08/14 02:36:32;;;;;;;4.30;3.83;;;16.40;67.80;;;15.52;76.28;95608.19;4935376;28;20050;-64
2022/08/14 02:38:57;;;;;;;8.20;4.15;;;16.50;67.90;;;15.48;76.28;95612.34;4933506;29;20507;-64
2022/08/14 02:41:24;;;;;;;5.07;3.97;;;16.40;68.10;;;15.47;76.32;95608.06;4949607;28;20032;-64
2022/08/14 02:43:49;;;;;;;6.90;4.30;;;16.40;68.30;;;15.46;76.89;95599.31;4950607;28;20035;-66
2022/08/14 02:46:15;;;;;;;8.32;4.55;;;16.40;68.30;;;15.46;76.62;95601.97;4965067;28;20094;-66
2022/08/14 02:48:41;;;;;;;5.00;4.00;;;16.40;68.20;;;15.44;77.11;95593.44;4949381;28;20054;-67
2022/08/14 02:51:12;;;;;;;5.85;4.32;;;16.40;68.10;;;15.44;77.90;95597.94;4967074;28;20023;-66
2022/08/14 02:53:46;;;;;;;4.30;3.85;;;16.40;67.90;;;15.44;77.82;95587.34;4952264;28;20043;-66
2022/08/14 02:56:18;;;;;;;5.43;3.97;;;16.40;67.80;;;15.41;76.63;95585.97;4951090;28;20032;-64
2022/08/14 02:58:48;;;;;;;7.25;4.13;;;16.40;67.80;;;15.40;76.36;95588.84;4919984;29;20407;-64
2022/08/14 03:01:16;;;;;;;7.20;4.40;;;16.40;67.90;;;15.37;76.66;95581.31;4966483;28;20522;-65
2022/08/14 03:03:42;;;;;;;6.45;4.60;;;16.40;67.70;;;15.36;76.90;95583.16;4934440;28;20055;-64
2022/08/14 03:06:08;;;;;;;8.80;4.57;;;16.30;67.80;;;15.35;76.34;95586.84;4950048;28;20039;-64
2022/08/14 03:08:36;;;;;;;6.07;4.50;;;16.30;67.90;;;15.35;76.46;95588.69;4949118;28;20061;-64
2022/08/14 03:11:06;;;;;;;4.88;4.38;;;16.30;68.00;;;15.33;77.28;95578.34;4950284;28;20063;-65
2022/08/14 03:13:42;;;;;;;6.50;4.55;;;16.30;68.00;;;15.33;78.49;95584.44;4948559;28;20510;-64
2022/08/14 03:16:13;;;;;;;7.13;4.22;;;16.30;68.00;;;15.28;76.93;95579.03;4955060;28;20501;-64
2022/08/14 03:18:42;;;;;;;5.13;4.63;;;16.30;68.10;;;15.27;77.42;95585.38;4947677;28;20047;-65
2022/08/14 03:21:12;;;;;;;4.90;4.25;;;16.30;68.40;;;15.24;77.01;95588.50;4965116;28;20051;-64
2022/08/14 03:23:42;;;;;;;6.60;4.47;;;16.20;68.30;;;15.23;78.00;95586.88;4964842;28;20043;-64
2022/08/14 03:26:10;;;;;;;5.72;4.55;;;16.20;68.20;;;15.22;77.47;95587.91;4950243;28;20074;-64
2022/08/14 03:28:39;;;;;;;5.95;4.97;;;16.20;68.40;;;15.21;78.29;95580.19;4964625;28;20466;-64
2022/08/14 03:31:05;;;;;;;5.65;5.00;;;16.20;68.60;;;15.17;78.54;95579.06;4952247;28;20027;-64
2022/08/14 03:33:31;;;;;;;6.13;4.93;;;16.10;68.90;;;15.15;78.88;95571.31;4947883;28;20039;-64
2022/08/14 03:35:58;;;;;;;6.20;5.25;;;16.20;69.30;;;15.14;79.41;95569.69;4949935;28;20058;-64
2022/08/14 03:38:24;;;;;;;7.93;5.60;;;16.10;69.50;;;15.12;78.84;95558.53;4963587;28;20043;-64
2022/08/14 03:40:49;;;;;;;7.93;5.35;;;16.10;69.60;;;15.11;79.80;95556.09;4951003;28;20546;-64
2022/08/14 03:43:15;;;;;;;6.50;5.50;;;16.10;69.90;;;15.12;79.46;95555.88;4947898;28;20118;-64
2022/08/14 03:45:43;;;;;;;7.50;5.30;;;16.10;69.90;;;15.13;79.21;95546.88;4964280;28;20031;-64
2022/08/14 03:48:18;;;;;;;5.90;5.30;;;16.20;69.90;;;15.14;79.84;95547.69;4945723;28;20040;-65
2022/08/14 03:50:50;;;;;;;7.35;5.80;;;16.10;69.90;;;15.13;80.52;95552.19;4948676;28;20066;-64
2022/08/14 03:53:17;;;;;;;5.93;4.90;;;16.10;69.70;;;15.11;79.49;95551.63;4949225;28;20028;-64
2022/08/14 03:55:43;;;;;;;5.72;4.88;;;16.10;68.90;;;15.06;79.27;95561.28;4932935;29;20035;-64
2022/08/14 03:58:08;;;;;;;6.68;5.00;;;16.00;68.90;;;15.00;78.41;95558.53;4949601;28;20556;-64
2022/08/14 04:00:35;;;;;;;6.15;4.97;;;15.90;69.00;;;14.95;78.97;95554.97;4944773;28;20376;-64
2022/08/14 04:03:06;;;;;;;6.78;5.05;;;15.90;69.30;;;14.91;79.16;95553.78;4946786;28;20027;-65
2022/08/14 04:05:32;;;;;;;6.32;5.13;;;15.80;69.60;;;14.87;79.30;95557.94;4947037;28;20039;-65
2022/08/14 04:07:58;;;;;;;7.55;5.10;;;15.80;69.70;;;14.82;79.47;95555.97;4953564;28;20075;-65
2022/08/14 04:10:25;;;;;;;6.85;4.82;;;15.80;70.00;;;14.82;80.52;95548.03;4947832;28;20064;-65
2022/08/14 04:12:50;;;;;;;6.75;5.18;;;15.80;70.20;;;14.81;79.67;95545.63;4959563;28;20083;-65
2022/08/14 04:15:18;;;;;;;6.60;5.70;;;15.80;70.20;;;14.80;80.27;95546.66;4947586;28;20027;-65
2022/08/14 04:17:45;;;;;;;7.18;5.10;;;15.80;70.30;;;14.77;80.39;95542.63;4955618;28;20042;-65
2022/08/14 04:20:11;;;;;;;7.22;4.97;;;15.80;70.20;;;14.75;80.52;95551.84;4945730;28;20032;-64
2022/08/14 04:22:39;;;;;;;7.70;5.43;;;15.70;70.30;;;14.74;80.91;95555.50;4914905;29;20099;-65
2022/08/14 04:25:06;;;;;;;7.57;5.22;;;15.70;70.40;;;14.73;80.92;95538.03;4965062;28;20407;-65
2022/08/14 04:27:34;;;;;;;5.35;4.85;;;15.80;70.60;;;14.68;81.00;95543.97;4948374;28;20031;-65
2022/08/14 04:30:00;;;;;;;8.02;5.40;;;15.70;70.80;;;14.67;82.13;95535.22;4965672;28;20540;-65
2022/08/14 04:32:26;;;;;;;7.03;5.00;;;15.70;71.00;;;14.68;81.70;95530.75;4934962;28;20039;-65
2022/08/14 04:34:53;;;;;;;6.07;5.35;;;15.80;71.10;;;14.70;82.30;95532.13;4926724;29;20066;-65
2022/08/14 04:45:41;;;;;;;7.45;5.38;;;15.90;71.10;;;14.81;81.76;95517.28;4960822;28;20042;-64
2022/08/14 04:48:13;;;;;;;6.90;5.32;;;16.00;70.90;;;14.84;83.15;95516.03;4948329;28;20042;-65
2022/08/14 04:50:50;;;;;;;6.03;4.70;;;16.00;70.50;;;14.85;82.52;95515.78;4931257;29;20079;-67
2022/08/14 04:53:21;;;;;;;9.30;5.25;;;16.00;70.30;;;14.88;82.43;95517.19;4948060;28;20027;-68
2022/08/14 04:55:47;;;;;;;6.38;4.90;;;16.10;70.20;;;14.90;81.72;95515.91;4948572;28;20090;-68
2022/08/14 04:58:16;;;;;;;6.13;5.53;;;16.10;70.20;;;14.95;81.87;95513.41;4947994;28;20035;-68
2022/08/14 05:00:43;;;;;;;6.95;5.28;;;16.10;70.30;;;14.97;82.48;95513.16;4932015;29;20043;-67
2022/08/14 05:03:09;;;;;;;8.48;5.22;;;16.10;70.60;;;15.01;81.95;95514.31;4945760;28;20046;-64
2022/08/14 05:05:34;;;;;;;9.23;5.30;;;16.20;70.70;;;15.02;81.82;95515.94;4934884;28;20034;-64
2022/08/14 05:08:08;;;;;;;7.72;5.07;;;16.20;70.40;;;15.04;82.54;95524.44;4931018;29;20075;-64
2022/08/14 05:10:35;;;;;;;6.97;5.03;;;16.20;70.40;;;15.00;82.91;95518.00;4947818;28;20031;-64
2022/08/14 05:13:04;;;;;;;5.55;5.05;;;16.20;70.50;;;15.01;81.93;95522.25;4962392;28;20102;-65
2022/08/14 05:15:31;;;;;;;7.10;5.38;;;16.20;70.60;;;15.04;82.00;95511.19;4947520;28;20510;-64
2022/08/14 05:17:57;;;;;;;9.57;5.40;;;16.30;70.60;;;15.08;82.74;95509.69;4948196;28;20380;-64
2022/08/14 05:20:23;;;;;;;4.95;4.45;;;16.30;70.20;;;15.13;82.53;95506.34;4948246;28;20111;-66
2022/08/14 05:22:49;;;;;;;5.90;4.88;;;16.50;69.80;;;15.16;82.79;95519.97;4947183;28;20046;-64
2022/08/14 05:25:15;;;;;;;7.60;5.25;;;16.50;69.90;;;15.21;82.22;95512.13;4946901;28;20028;-64
2022/08/14 05:27:41;;;;;;;6.70;5.68;;;16.60;69.70;;;15.29;83.43;95503.81;4931500;29;20582;-64
2022/08/14 05:30:07;;;;;;;7.70;5.50;;;16.60;69.60;;;15.35;82.52;95509.22;4946448;28;20044;-65
2022/08/14 05:32:33;;;;;;;6.35;5.22;;;16.70;69.60;;;15.43;82.67;95511.50;4947225;28;20038;-64
2022/08/14 05:34:59;;;;;;;7.53;5.90;;;16.80;69.30;;;15.51;82.29;95513.78;4944207;28;20035;-65
2022/08/14 05:37:26;;;;;;;9.38;5.70;;;16.90;69.30;;;15.59;82.23;95516.91;4945844;28;20046;-65
2022/08/14 05:39:51;;;;;;;6.95;5.30;;;17.00;68.50;;;15.69;82.25;95521.63;4931848;28;20514;-65
2022/08/14 05:42:17;;;;;;;6.18;5.00;;;17.10;68.30;;;15.78;81.75;95522.84;4960896;28;20059;-64
2022/08/14 05:44:43;;;;;;;6.32;5.47;;;17.30;67.90;;;15.88;81.25;95522.25;4943838;28;20059;-64
2022/08/14 05:47:09;;;;;;;8.55;5.53;;;17.40;67.70;;;15.98;80.75;95519.78;4948187;28;20077;-64
2022/08/14 05:49:35;;;;;;;5.88;4.55;;;17.60;67.20;;;16.08;81.06;95521.84;4957413;28;20048;-64
2022/08/14 05:52:01;;;;;;;5.93;4.53;;;17.60;67.40;;;16.16;81.06;95524.91;4931653;29;20101;-64
2022/08/14 05:54:27;;;;;;;6.97;4.53;;;17.70;67.00;;;16.26;80.71;95528.78;4946697;28;20130;-65
2022/08/14 05:56:53;;;;;;;5.85;4.70;;;17.90;66.70;;;16.37;80.04;95526.09;4947394;28;20039;-64
2022/08/14 05:59:18;;;;;;;5.28;4.78;;;18.00;66.20;;;16.49;79.67;95528.66;4961136;28;20050;-65
2022/08/14 06:01:44;;;;;;;7.13;4.88;;;18.10;65.00;;;16.60;79.21;95534.97;4933988;28;20039;-65
2022/08/14 06:04:10;;;;;;;6.50;4.15;;;18.30;64.10;;;16.73;78.31;95532.00;4961316;28;20109;-65
2022/08/14 06:06:36;;;;;;;5.18;4.68;;;18.50;63.40;;;16.87;77.41;95527.19;4918850;29;20066;-65
2022/08/14 06:09:02;;;;;;;5.68;5.05;;;18.60;62.70;;;17.00;76.10;95532.19;4934047;29;20031;-68
2022/08/14 06:11:27;;;;;;;6.93;4.35;;;18.80;62.10;;;17.11;75.68;95532.09;4930186;28;20127;-68
2022/08/14 06:13:53;;;;;;;6.68;4.68;;;19.00;61.90;;;17.27;75.39;95527.81;4917737;29;20439;-69
2022/08/14 06:16:19;;;;;;;6.28;4.60;;;19.20;61.20;;;17.42;75.29;95538.63;4965734;28;20523;-69
2022/08/14 06:18:47;;;;;;;4.43;3.88;;;19.30;61.10;;;17.59;73.41;95524.50;4918335;29;20168;-71
2022/08/14 06:21:14;;;;;;;5.22;4.10;;;19.50;58.30;;;17.78;72.09;95525.03;4944894;28;20038;-66
2022/08/14 06:23:40;;;;;;;4.78;3.97;;;19.80;57.90;;;17.99;72.26;95526.88;4930356;28;20133;-68
2022/08/14 06:26:06;;;;;;;9.20;4.57;;;20.00;57.90;;;18.17;71.21;95525.75;4967581;28;20095;-69
2022/08/14 06:28:31;;;;;;;5.43;4.43;;;20.10;58.20;;;18.33;71.42;95523.00;4952661;28;20426;-68
2022/08/14 06:30:57;;;;;;;4.13;3.72;;;20.20;58.40;;;18.49;71.08;95523.13;4962877;28;20070;-71
2022/08/14 06:33:23;;;;;;;4.40;4.00;;;20.30;57.60;;;18.63;69.98;95521.69;4965461;28;20077;-69
2022/08/14 06:35:49;;;;;;;6.88;4.03;;;20.40;56.90;;;18.76;69.25;95526.56;4931384;28;20043;-70
2022/08/14 06:38:18;;;;;;;5.90;3.80;;;20.50;56.20;;;18.86;68.07;95532.00;4902035;29;20087;-69
2022/08/14 06:40:44;;;;;;;5.32;3.85;;;20.60;55.30;;;18.95;68.02;95530.47;4920489;28;20411;-69
2022/08/14 06:43:10;;;;;;;4.82;3.60;;;20.70;55.40;;;19.04;67.13;95536.16;4920579;28;20038;-70
2022/08/14 06:45:39;;;;;;;4.32;3.65;;;20.80;55.10;;;19.14;67.05;95528.22;4936916;28;20043;-68
2022/08/14 06:48:13;;;;;;;3.97;3.28;;;20.90;55.50;;;19.26;66.32;95531.50;4954223;28;20034;-69
2022/08/14 06:50:39;;;;;;;3.60;2.97;;;21.10;55.50;;;19.38;67.43;95533.16;4961444;28;20538;-70
2022/08/14 06:53:06;;;;;;;6.30;3.05;;;21.10;55.30;;;19.48;66.81;95526.03;4952941;28;20058;-69
2022/08/14 06:55:31;;;;;;;5.72;3.60;;;21.30;54.60;;;19.60;65.29;95525.03;4921248;28;20117;-69
2022/08/14 06:57:57;;;;;;;5.10;3.42;;;21.50;53.50;;;19.68;65.17;95525.34;4925135;28;20034;-69
2022/08/14 07:00:25;;;;;;;3.55;3.05;;;21.50;53.50;;;19.80;63.69;95525.13;4952128;28;20522;-70
2022/08/14 07:05:45;;;;;;;4.82;3.47;;;21.70;52.60;;;20.05;63.75;95527.88;4920322;28;20171;-69
2022/08/14 07:08:22;;;;;;;8.50;3.50;;;22.00;52.30;;;20.18;62.06;95511.38;4914675;28;20032;-69
2022/08/14 07:10:53;;;;;;;5.35;3.30;;;22.10;51.90;;;20.28;62.07;95521.28;4915194;29;20031;-69
2022/08/14 07:13:19;;;;;;;3.08;2.67;;;22.20;51.80;;;20.41;62.61;95514.66;4928798;28;20127;-69
2022/08/14 07:15:48;;;;;;;3.47;2.80;;;22.40;51.50;;;20.55;62.72;95510.38;4952793;28;20106;-69
2022/08/14 07:18:17;;;;;;;2.97;2.58;;;22.50;51.50;;;20.72;61.49;95510.94;4942691;28;20026;-69
2022/08/14 07:20:43;;;;;;;2.83;2.45;;;22.70;50.40;;;20.90;61.43;95514.16;4974973;28;20512;-70
2022/08/14 07:23:09;;;;;;;4.45;2.70;;;22.90;50.00;;;21.08;61.15;95508.28;4920815;28;20125;-69
2022/08/14 07:25:36;;;;;;;2.65;2.35;;;23.20;49.20;;;21.26;60.11;95506.91;4952039;28;20023;-69
2022/08/14 07:28:12;;;;;;;3.20;2.60;;;23.40;49.10;;;21.46;59.53;95493.50;4935331;29;20023;-70
2022/08/14 07:30:38;;;;;;;3.50;2.47;;;23.70;49.20;;;21.68;60.25;95479.78;4956956;28;20119;-70
2022/08/14 07:33:04;;;;;;;5.90;2.70;;;23.90;48.70;;;21.93;60.24;95473.50;4933105;28;20039;-69
2022/08/14 07:35:31;;;;;;;5.35;3.33;;;24.30;48.30;;;22.17;59.85;95469.09;4938334;28;20035;-69
2022/08/14 07:37:57;;;;;;;3.00;2.40;;;24.60;48.60;;;22.38;58.57;95467.09;4954971;28;20095;-69
2022/08/14 07:40:22;;;;;;;3.08;2.50;;;24.80;45.70;;;22.60;57.48;95464.78;4920383;29;20043;-69
2022/08/14 07:42:48;;;;;;;3.22;2.47;;;25.10;45.50;;;22.84;57.02;95458.72;4957987;28;20061;-69
2022/08/14 07:45:14;;;;;;;2.95;2.08;;;25.30;45.10;;;23.07;57.24;95460.66;4954552;28;20039;-69
2022/08/14 07:47:42;;;;;;;5.53;2.25;;;25.60;45.20;;;23.33;55.28;95449.69;4951254;28;20107;-69
2022/08/14 07:50:14;;;;;;;3.33;2.50;;;26.00;43.90;;;23.55;54.14;95447.28;4936012;28;20050;-69
2022/08/14 07:52:42;;;;;;;3.83;2.25;;;26.10;43.80;;;23.77;55.22;95449.47;4936985;28;20031;-69
2022/08/14 07:55:09;;;;;;;3.08;2.20;;;26.50;43.90;;;24.02;54.59;95449.13;4960276;28;20038;-69
2022/08/14 07:57:37;;;;;;;2.47;2.00;;;26.70;42.60;;;24.25;53.78;95439.41;4927720;28;20035;-68
2022/08/14 08:00:08;;;;;;;2.97;2.00;;;27.00;41.70;;;24.51;52.70;95441.75;4936202;28;20031;-69
2022/08/14 08:02:34;;;;;;;3.20;2.13;;;27.20;41.60;;;24.73;52.64;95442.72;4951738;28;20035;-70
2022/08/14 08:05:00;;;;;;;2.10;1.90;;;27.50;41.80;;;25.00;51.55;95444.69;4956314;28;20031;-69
2022/08/14 08:07:29;;;;;;;1.90;1.70;;;27.70;40.40;;;25.22;50.28;95438.66;4919371;28;20036;-69
2022/08/14 08:09:56;;;;;;;4.10;2.10;;;28.10;39.50;;;25.45;49.50;95436.88;4935644;29;20048;-69
2022/08/14 08:12:21;;;;;;;4.68;2.08;;;28.20;38.40;;;25.72;49.32;95432.59;4943194;28;20486;-69
2022/08/14 08:14:48;;;;;;;5.85;1.70;;;28.60;38.10;;;25.94;48.60;95435.38;4919909;29;20039;-70
2022/08/14 08:17:14;;;;;;;5.93;2.42;;;28.80;37.60;;;26.16;47.31;95435.41;4919845;28;20086;-69
2022/08/14 08:19:39;;;;;;;4.68;1.73;;;29.00;36.50;;;26.36;46.78;95436.09;4919404;28;20499;-69
2022/08/14 08:22:05;;;;;;;4.97;1.80;;;29.10;36.30;;;26.56;46.41;95435.63;4951278;28;20490;-69
2022/08/14 08:24:31;;;;;;;4.40;2.22;;;29.40;35.90;;;26.76;46.01;95435.13;4951384;29;20121;-69
2022/08/14 08:26:57;;;;;;;4.18;1.80;;;29.60;35.90;;;26.85;45.56;95427.88;4948107;28;20059;-70
2022/08/14 08:29:23;;;;;;;2.38;1.77;;;29.70;35.40;;;27.10;44.30;95428.34;4945542;28;20035;-69
2022/08/14 08:31:49;;;;;;;1.90;1.70;;;30.10;34.80;;;27.25;43.56;95422.56;4924624;29;20431;-70
2022/08/14 08:34:19;;;;;;;2.10;1.80;;;30.10;33.90;;;27.46;41.77;95423.59;4945086;28;20042;-69
2022/08/14 08:36:45;;;;;;;4.43;1.95;;;30.50;33.50;;;27.70;42.53;95430.53;4932206;28;20357;-69
2022/08/14 08:39:11;;;;;;;3.75;1.80;;;30.80;33.10;;;27.91;42.20;95425.34;4931671;28;20059;-69
2022/08/14 08:41:44;;;;;;;4.60;1.95;;;31.00;32.30;;;28.13;40.45;95427.91;4938949;28;20472;-69
2022/08/14 08:44:10;;;;;;;2.33;1.75;;;31.30;32.60;;;28.36;41.51;95425.88;4948269;28;20042;-70
2022/08/14 08:46:36;;;;;;;4.85;1.80;;;31.60;32.50;;;28.62;41.52;95432.06;4919115;29;20392;-69
2022/08/14 08:49:02;;;;;;;2.28;1.70;;;31.90;32.20;;;28.85;40.45;95421.06;4950766;28;20038;-69
2022/08/14 08:51:34;;;;;;;6.40;1.63;;;32.10;30.70;;;29.04;37.14;95418.81;4941132;28;20446;-69
2022/08/14 08:54:09;;;;;;;1.85;1.50;;;32.20;30.00;;;29.25;37.46;95422.41;4919881;29;20035;-70
2022/08/14 08:56:45;;;;;;;2.20;1.92;;;32.50;30.40;;;29.43;36.89;95411.53;4935675;28;20039;-69
2022/08/14 08:59:24;;;;;;;2.58;1.75;;;32.60;30.00;;;29.67;36.46;95408.25;4936016;29;20118;-70
2022/08/14 09:01:51;;;;;;;2.53;1.52;;;32.90;30.00;;;29.88;38.17;95403.66;4944533;28;20503;-70
2022/08/14 09:04:18;;;;;;;1.95;1.50;;;33.20;29.90;;;30.07;37.42;95400.50;4964233;28;20086;-69
2022/08/14 09:06:47;;;;;;;2.42;1.73;;;33.20;28.40;;;30.18;36.37;95404.44;4919291;29;20050;-70
2022/08/14 09:09:25;;;;;;;3.30;1.50;;;33.40;29.20;;;30.38;34.98;95406.34;4934821;28;20104;-69
2022/08/14 09:11:54;;;;;;;2.83;1.73;;;33.60;28.60;;;30.57;36.22;95407.78;4924712;29;20089;-70
2022/08/14 09:14:21;;;;;;;3.30;1.63;;;33.90;27.90;;;30.76;36.14;95405.38;4919554;29;20035;-69
2022/08/14 09:16:49;;;;;;;3.75;1.90;;;34.20;28.10;;;30.95;34.81;95408.38;4934866;29;20027;-70
2022/08/14 09:19:15;;;;;;;1.75;1.48;;;34.30;28.10;;;31.17;35.70;95407.22;4918835;29;20495;-69
2022/08/14 09:21:41;;;;;;;2.65;1.75;;;34.60;27.30;;;31.36;34.72;95398.53;4955571;28;20125;-70
2022/08/14 09:24:07;;;;;;;2.10;1.70;;;34.80;27.40;;;31.54;34.86;95390.94;4941296;28;20031;-70
2022/08/14 09:26:33;;;;;;;2.00;1.50;;;35.00;26.70;;;31.72;34.79;95388.81;4934461;28;20434;-70
2022/08/14 09:28:59;;;;;;;3.72;1.80;;;35.20;26.90;;;31.94;33.84;95383.69;4950086;28;20038;-70
2022/08/14 09:31:25;;;;;;;2.10;1.70;;;35.50;26.50;;;32.15;34.00;95380.81;4931425;28;20122;-70
2022/08/14 09:34:07;;;;;;;2.83;1.83;;;35.60;25.90;;;32.39;31.59;95381.91;4941537;28;20168;-70
2022/08/14 09:36:54;;;;;;;3.08;1.52;;;36.00;25.50;;;32.64;31.27;95388.84;4932706;28;20038;-69
2022/08/14 09:39:28;;;;;;;2.42;1.40;;;36.30;25.70;;;32.85;31.19;95380.50;4931727;28;20082;-68
2022/08/14 09:42:11;;;;;;;2.72;1.55;;;36.50;24.90;;;33.03;30.03;95378.19;4948557;28;20165;-69
2022/08/14 09:45:06;;;;;;;1.92;1.60;;;36.60;24.30;;;33.24;30.55;95370.56;4957677;28;20587;-70
2022/08/14 09:47:47;;;;;;;1.40;1.27;;;36.90;24.80;;;33.51;29.92;95376.34;4933706;28;20083;-70
2022/08/14 09:50:27;;;;;;;2.00;1.60;;;37.20;23.80;;;33.76;29.65;95377.69;4949505;28;20039;-70
2022/08/14 09:53:04;;;;;;;3.38;1.80;;;37.60;23.90;;;33.97;29.38;95372.75;4960865;28;20054;-69
2022/08/14 09:55:34;;;;;;;1.55;1.45;;;37.80;23.40;;;34.19;30.02;95367.75;4950002;28;20050;-70
2022/08/14 09:58:10;;;;;;;2.42;1.50;;;38.10;23.30;;;34.42;28.66;95365.13;4974464;28;20035;-69
2022/08/14 10:00:42;;;;;;;4.30;1.60;;;38.50;22.90;;;34.57;28.33;95375.16;4955436;28;20034;-70
2022/08/14 10:03:08;;;;;;;2.85;1.70;;;38.80;22.40;;;34.80;29.77;95364.28;4953993;28;20597;-70
2022/08/14 10:05:35;;;;;;;4.72;2.13;;;39.40;21.70;;;35.05;29.77;95354.63;4937826;28;20035;-70
2022/08/14 10:08:01;;;;;;;2.63;2.00;;;39.70;21.60;;;35.12;28.91;95356.72;4937945;29;20023;-69
2022/08/14 10:10:36;;;;;;;2.65;1.58;;;39.50;21.30;;;35.24;27.28;95346.34;4922204;28;20031;-69
2022/08/14 10:13:07;;;;;;;4.40;1.90;;;40.00;20.60;;;35.57;28.50;95342.22;4953683;28;20027;-69
2022/08/14 10:15:36;;;;;;;3.85;1.95;;;40.90;21.10;;;35.87;26.82;95345.81;4922714;28;20039;-69
2022/08/14 10:18:17;;;;;;;2.55;1.83;;;41.30;20.00;;;36.10;26.32;95342.22;4938033;29;20039;-69
2022/08/14 10:20:56;;;;;;;2.90;2.00;;;41.60;19.70;;;36.37;26.21;95335.53;4937878;29;20027;-69
2022/08/14 10:23:26;;;;;;;3.25;1.80;;;42.00;19.60;;;36.61;26.55;95334.25;4953257;28;20036;-70
2022/08/14 10:26:15;;;;;;;2.20;1.67;;;42.30;18.80;;;36.86;25.36;95329.03;4922625;29;20030;-70
2022/08/14 10:28:48;;;;;;;2.20;1.73;;;42.70;18.60;;;37.21;25.93;95333.28;4953193;28;20032;-70
2022/08/14 10:31:22;;;;;;;3.10;1.75;;;43.20;18.20;;;37.50;24.52;95339.81;4929666;29;20508;-70
2022/08/14 10:34:01;;;;;;;2.17;1.67;;;43.60;17.60;;;37.81;25.03;95327.53;4954638;28;20039;-70
2022/08/14 10:36:38;;;;;;;1.98;1.55;;;44.10;18.00;;;38.14;23.84;95319.06;4953606;28;20037;-70
2022/08/14 10:39:15;;;;;;;1.85;1.65;;;44.50;17.30;;;38.46;24.80;95315.66;4938434;28;20118;-69
2022/08/14 10:41:42;;;;;;;4.68;1.63;;;44.80;17.40;;;38.71;24.85;95319.31;4943390;28;20039;-70